Time;durP1;ratioP1;P1;durP2;ratioP2;P2;SDS_P1;SDS_P2;PMS_P1;PMS_P2;Temp;Humidity;BMP_temperature;BMP_pressure;BME280_temperature;BME280_humidity;BME280_pressure;Samples;Min_cycle;Max_cycle;Signal;HPM_P1;HPM_P2
2021/12/24 00:00:55;;;;;;;41.10;16.40;;;;;;;-3.42;100.00;97206.34;4322346;33;20455;-74
2021/12/24 00:03:22;;;;;;;41.22;16.65;;;;;;;-3.29;100.00;97219.50;4319253;33;20398;-73
2021/12/24 00:05:49;;;;;;;48.55;18.20;;;;;;;-3.20;100.00;97249.03;4324143;33;20056;-72
2021/12/24 00:08:16;;;;;;;44.95;17.98;;;;;;;-3.18;100.00;97244.38;4323171;33;20046;-72
2021/12/24 00:10:47;;;;;;;36.38;16.10;;;;;;;-3.18;100.00;97233.03;4323488;33;20402;-72
2021/12/24 00:13:15;;;;;;;33.17;13.82;;;;;;;-3.32;100.00;97212.00;4323537;33;20033;-74
2021/12/24 00:18:27;;;;;;;37.55;16.83;;;;;;;-3.21;100.00;97228.19;4323128;33;20058;-72
2021/12/24 00:37:16;;;;;;;54.40;21.10;;;;;;;-3.11;100.00;97181.19;4325365;33;20045;-74
2021/12/24 00:40:29;;;;;;;40.03;15.43;;;;;;;-3.20;100.00;97170.06;4309701;33;20351;-74
2021/12/24 00:42:31;;;;;;;50.72;17.52;;;;;;;-3.13;100.00;97184.03;4303361;33;20427;-73
2021/12/24 00:44:58;;;;;;;37.25;16.00;;;;;;;-3.13;100.00;97178.75;4319063;33;20062;-73
2021/12/24 00:47:25;;;;;;;42.40;18.70;;;;;;;-3.48;100.00;97125.59;4310452;33;20160;-73
2021/12/24 00:49:53;;;;;;;38.53;16.90;;;;;;;-3.25;100.00;97127.75;4324133;33;20040;-73
2021/12/24 00:52:45;;;;;;;35.20;15.48;;;;;;;-3.06;100.00;97173.47;4325404;33;20044;-72
2021/12/24 00:55:09;;;;;;;37.17;14.95;;;;;;;-3.26;100.00;97109.53;4324783;33;20057;-73
2021/12/24 00:57:39;;;;;;;36.88;16.58;;;;;;;-3.06;100.00;97159.47;4325847;33;20090;-72
2021/12/24 01:00:11;;;;;;;39.80;16.58;;;;;;;-3.10;100.00;97162.53;4327028;33;20381;-72
2021/12/24 01:02:38;;;;;;;36.75;17.10;;;;;;;-3.05;100.00;97159.28;4325935;33;20438;-72
2021/12/24 01:05:06;;;;;;;41.10;16.23;;;;;;;-3.08;100.00;97149.16;4325041;33;20052;-74
2021/12/24 01:07:34;;;;;;;33.00;14.93;;;;;;;-2.93;100.00;97147.06;4325128;33;20078;-72
2021/12/24 01:10:01;;;;;;;34.72;14.07;;;;;;;-2.97;100.00;97151.16;4325702;33;20052;-73
2021/12/24 01:12:27;;;;;;;39.58;14.93;;;;;;;-3.00;100.00;97130.50;4324439;33;20405;-72
2021/12/24 01:14:54;;;;;;;34.70;15.45;;;;;;;-2.86;100.00;97146.25;4325932;33;20398;-72
2021/12/24 01:19:58;;;;;;;37.50;14.40;;;;;;;-3.02;100.00;97121.19;4326503;33;20359;-73
2021/12/24 01:23:27;;;;;;;33.90;14.18;;;;;;;-3.03;100.00;97098.50;4326588;33;20045;-72
2021/12/24 01:25:32;;;;;;;40.45;16.50;;;;;;;-2.75;100.00;97122.66;4324915;33;20048;-72
2021/12/24 01:44:28;;;;;;;22.60;12.02;;;;;;;-3.03;100.00;97036.13;4310902;33;20048;-72
2021/12/24 01:46:57;;;;;;;34.58;14.45;;;;;;;-3.06;100.00;97026.03;4310715;33;20070;-72
2021/12/24 01:49:24;;;;;;;35.15;15.38;;;;;;;-2.63;100.00;97088.56;4309183;33;20037;-74
2021/12/24 01:51:52;;;;;;;36.60;14.77;;;;;;;-2.93;100.00;97033.81;4311140;33;20065;-73
2021/12/24 01:54:19;;;;;;;42.78;15.02;;;;;;;-2.52;100.00;97078.34;4312703;33;20104;-72
2021/12/24 01:56:46;;;;;;;26.40;13.65;;;;;;;-2.60;100.00;97071.50;4325837;33;20048;-72
2021/12/24 01:59:13;;;;;;;31.33;14.75;;;;;;;-2.80;100.00;97040.03;4324976;33;20364;-72
2021/12/24 02:01:40;;;;;;;34.10;14.23;;;;;;;-2.78;100.00;97020.34;4322737;33;20770;-73
2021/12/24 02:04:07;;;;;;;36.50;14.65;;;;;;;-2.51;100.00;97069.44;4325844;33;20064;-71
2021/12/24 02:06:34;;;;;;;38.88;15.57;;;;;;;-2.43;100.00;97055.97;4318227;33;20040;-72
2021/12/24 02:09:00;;;;;;;30.00;13.95;;;;;;;-2.52;100.00;97046.72;4310371;33;20106;-71
2021/12/24 02:11:27;;;;;;;26.45;10.50;;;;;;;-2.48;100.00;97038.19;4316115;33;20052;-72
2021/12/24 02:13:55;;;;;;;28.55;11.15;;;;;;;-2.70;100.00;97008.75;4323117;33;20431;-72
2021/12/24 02:30:13;;;;;;;34.25;14.63;;;;;;;-2.64;100.00;97007.88;4316066;33;20051;-73
2021/12/24 02:32:41;;;;;;;35.63;15.88;;;;;;;-2.40;100.00;97021.28;4311095;33;20136;-72
2021/12/24 02:35:09;;;;;;;35.92;14.20;;;;;;;-2.36;100.00;97033.03;4310199;33;20045;-73
2021/12/24 02:37:36;;;;;;;34.35;15.63;;;;;;;-2.43;100.00;97019.09;4309340;33;20386;-73
2021/12/24 02:40:04;;;;;;;50.95;19.87;;;;;;;-3.00;100.00;96913.75;4310242;33;20168;-74
2021/12/24 02:42:33;;;;;;;46.58;17.92;;;;;;;-2.28;100.00;97022.22;4308258;33;20092;-73
2021/12/24 02:45:01;;;;;;;44.00;19.58;;;;;;;-2.27;100.00;97015.09;4314545;33;20499;-74
2021/12/24 02:47:44;;;;;;;35.95;16.15;;;;;;;-2.56;100.00;96954.91;4322554;33;20044;-74
2021/12/24 02:55:29;;;;;;;32.72;13.77;;;;;;;-2.27;100.00;96989.53;4308969;33;20073;-75
2021/12/24 02:57:56;;;;;;;34.03;15.50;;;;;;;-2.16;100.00;96997.75;4310271;33;20065;-71
2021/12/24 03:00:26;;;;;;;32.88;14.15;;;;;;;-2.42;100.00;96952.19;4298311;33;20097;-76
2021/12/24 03:03:01;;;;;;;41.15;16.65;;;;;;;-2.13;100.00;96989.41;4309303;33;20509;-74
2021/12/24 03:05:28;;;;;;;23.77;12.57;;;;;;;-2.05;100.00;96979.38;4314305;33;20090;-73
2021/12/24 03:07:54;;;;;;;23.40;12.55;;;;;;;-2.45;100.00;96920.97;4318296;33;20078;-73
2021/12/24 03:10:21;;;;;;;34.58;16.10;;;;;;;-2.31;100.00;96942.72;4317376;33;20083;-73
2021/12/24 03:12:51;;;;;;;31.60;14.95;;;;;;;-1.97;100.00;96965.09;4324776;33;20037;-73
2021/12/24 03:15:20;;;;;;;23.40;10.95;;;;;;;-1.98;100.00;96968.75;4322095;33;20048;-73
2021/12/24 03:17:52;;;;;;;31.17;13.80;;;;;;;-1.97;100.00;96970.38;4305781;33;20078;-73
2021/12/24 03:20:20;;;;;;;30.00;14.20;;;;;;;-1.98;100.00;96950.28;4322267;33;20048;-72
2021/12/24 03:25:34;;;;;;;31.75;14.77;;;;;;;-1.84;100.00;96964.94;4327070;33;20115;-72
2021/12/24 03:28:00;;;;;;;37.70;15.65;;;;;;;-1.84;100.00;96972.06;4322069;33;20086;-73
2021/12/24 03:30:27;;;;;;;33.47;12.93;;;;;;;-1.79;100.00;96969.56;4328452;33;20044;-72
2021/12/24 03:32:54;;;;;;;31.65;13.60;;;;;;;-2.07;100.00;96923.41;4328369;33;20063;-72
2021/12/24 03:35:21;;;;;;;13.70;6.68;;;;;;;-2.03;100.00;96918.50;4321678;33;20044;-74
2021/12/24 03:37:47;;;;;;;32.78;13.57;;;;;;;-1.85;100.00;96944.87;4318775;33;20380;-73
2021/12/24 03:40:14;;;;;;;29.50;13.18;;;;;;;-1.87;100.00;96944.28;4328505;33;20040;-73
2021/12/24 03:42:42;;;;;;;25.00;11.65;;;;;;;-1.97;100.00;96917.62;4326734;33;20101;-73
2021/12/24 03:48:20;;;;;;;37.65;13.50;;;;;;;-1.70;100.00;96943.69;4282215;33;20106;-72
2021/12/24 03:56:18;;;;;;;23.08;10.75;;;;;;;-1.52;100.00;96941.00;4313524;33;20045;-73
2021/12/24 03:58:45;;;;;;;30.90;12.52;;;;;;;-1.99;100.00;96874.84;4318622;33;20040;-73
2021/12/24 04:01:14;;;;;;;20.35;10.48;;;;;;;-1.51;100.00;96932.06;4326652;33;20048;-74
2021/12/24 04:04:08;;;;;;;19.83;9.23;;;;;;;-1.41;100.00;96938.66;4316711;33;20066;-73
2021/12/24 04:06:39;;;;;;;20.55;10.95;;;;;;;-1.43;100.00;96948.62;4326624;33;20439;-73
2021/12/24 04:09:09;;;;;;;25.77;11.18;;;;;;;-1.38;100.00;96946.13;4312661;33;20041;-73
2021/12/24 04:11:38;;;;;;;20.92;11.12;;;;;;;-1.71;100.00;96884.00;4309288;33;20080;-75
2021/12/24 04:14:05;;;;;;;18.40;9.55;;;;;;;-1.63;100.00;96907.44;4305129;33;20086;-72
2021/12/24 04:16:32;;;;;;;21.90;10.80;;;;;;;-1.38;100.00;96917.06;4320151;33;20109;-72
2021/12/24 04:24:54;;;;;;;22.48;10.68;;;;;;;-1.16;100.00;96941.94;4256512;33;20068;-73
2021/12/24 04:27:27;;;;;;;18.33;10.27;;;;;;;-1.11;100.00;96920.94;4264481;33;20907;-74
2021/12/24 04:30:03;;;;;;;20.62;11.02;;;;;;;-1.04;100.00;96914.75;4267696;33;20054;-73
2021/12/24 04:33:19;;;;;;;16.73;8.18;;;;;;;-1.31;100.00;96857.03;4266631;33;20089;-73
2021/12/24 04:51:47;;;;;;;15.35;8.32;;;;;;;-1.19;100.00;96880.84;4261368;33;20466;-73
2021/12/24 05:06:05;;;;;;;20.77;12.05;;;;;;;-1.04;100.00;96861.91;4287671;33;20032;-76
2021/12/24 05:08:26;;;;;;;16.17;8.43;;;;;;;-1.14;100.00;96851.91;4311458;33;20053;-72
2021/12/24 05:10:54;;;;;;;19.55;10.63;;;;;;;-0.86;100.00;96896.16;4299472;33;20049;-73
2021/12/24 05:13:22;;;;;;;17.65;8.75;;;;;;;-0.74;100.00;96904.88;4310333;33;20411;-73
2021/12/24 05:15:58;;;;;;;23.30;10.45;;;;;;;-0.80;100.00;96899.72;4320941;33;20076;-74
2021/12/24 05:23:45;;;;;;;10.35;5.37;;;;;;;-1.00;100.00;96868.34;4316429;33;20095;-73
2021/12/24 05:26:13;;;;;;;19.42;10.52;;;;;;;-0.80;100.00;96934.06;4302767;33;20083;-73
2021/12/24 05:28:40;;;;;;;21.80;11.02;;;;;;;-0.96;100.00;96875.59;4326819;33;20049;-74
2021/12/24 05:31:07;;;;;;;23.52;9.80;;;;;;;-0.75;100.00;96913.87;4310954;33;20051;-75
2021/12/24 05:33:34;;;;;;;24.75;10.65;;;;;;;-0.79;100.00;96918.00;4309459;33;20045;-73
2021/12/24 05:36:00;;;;;;;22.25;10.65;;;;;;;-0.66;100.00;96929.37;4299414;33;20144;-73
2021/12/24 05:38:27;;;;;;;18.77;9.65;;;;;;;-0.77;100.00;96926.47;4310247;33;20067;-72
2021/12/24 05:40:54;;;;;;;21.23;10.45;;;;;;;-0.81;100.00;96917.41;4324696;33;20401;-73
2021/12/24 05:43:20;;;;;;;11.27;5.28;;;;;;;-0.72;100.00;96928.44;4310831;33;20450;-74
2021/12/24 05:45:49;;;;;;;14.70;9.13;;;;;;;-0.75;100.00;96908.59;4318007;33;20033;-73
2021/12/24 05:48:16;;;;;;;20.37;11.23;;;;;;;-0.68;100.00;96913.75;4326723;33;20070;-73
2021/12/24 05:50:45;;;;;;;17.00;8.45;;;;;;;-0.87;100.00;96883.97;4326078;33;20037;-73
2021/12/24 05:53:16;;;;;;;21.40;10.40;;;;;;;-0.70;100.00;96909.72;4325575;33;20360;-74
2021/12/24 05:55:48;;;;;;;19.12;9.43;;;;;;;-0.85;100.00;96865.25;4322530;33;20062;-73
2021/12/24 05:58:17;;;;;;;19.02;9.55;;;;;;;-0.71;100.00;96911.56;4312109;33;20639;-74
2021/12/24 06:00:47;;;;;;;17.33;9.45;;;;;;;-0.78;100.00;96909.03;4311858;33;20045;-73
2021/12/24 06:03:16;;;;;;;20.35;11.40;;;;;;;-0.83;100.00;96895.72;4310635;33;20062;-75
2021/12/24 06:05:43;;;;;;;17.23;9.25;;;;;;;-0.68;100.00;96912.97;4319562;33;20083;-73
2021/12/24 06:08:10;;;;;;;20.55;10.15;;;;;;;-1.01;100.00;96866.75;4312260;33;20036;-74
2021/12/24 06:10:37;;;;;;;19.00;9.70;;;;;;;-0.73;100.00;96890.66;4325101;33;20036;-74
2021/12/24 06:13:04;;;;;;;19.60;9.52;;;;;;;-0.78;100.00;96887.09;4320316;33;20066;-74
2021/12/24 06:15:41;;;;;;;20.92;9.40;;;;;;;-0.63;100.00;96905.13;4320304;33;20036;-76
2021/12/24 06:20:53;;;;;;;17.87;8.85;;;;;;;-0.77;100.00;96905.34;4312068;33;20051;-74
2021/12/24 06:23:22;;;;;;;20.73;9.93;;;;;;;-0.74;100.00;96896.97;4308657;33;20049;-75
2021/12/24 06:25:49;;;;;;;18.25;10.27;;;;;;;-0.85;100.00;96868.69;4311075;33;20044;-74
2021/12/24 06:28:16;;;;;;;14.73;6.93;;;;;;;-0.73;100.00;96901.22;4310345;33;20453;-74
2021/12/24 06:30:43;;;;;;;17.42;9.98;;;;;;;-0.99;100.00;96849.62;4309520;33;20366;-74
2021/12/24 06:33:10;;;;;;;12.30;7.45;;;;;;;-0.66;100.00;96895.81;4325721;33;20045;-73
2021/12/24 06:35:38;;;;;;;11.75;7.32;;;;;;;-0.71;100.00;96889.63;4320211;33;20312;-74
2021/12/24 06:38:05;;;;;;;15.25;8.63;;;;;;;-0.78;100.00;96887.91;4322755;33;20651;-74
2021/12/24 06:40:32;;;;;;;15.32;9.05;;;;;;;-0.62;100.00;96885.59;4323609;33;20086;-74
2021/12/24 06:42:58;;;;;;;15.60;9.30;;;;;;;-0.97;100.00;96820.34;4323570;33;20052;-73
2021/12/24 06:45:26;;;;;;;15.48;8.38;;;;;;;-0.75;100.00;96868.94;4324419;33;20197;-74
2021/12/24 06:47:55;;;;;;;12.85;6.87;;;;;;;-0.66;100.00;96884.44;4304636;33;20071;-74
2021/12/24 06:50:22;;;;;;;15.73;7.90;;;;;;;-0.70;100.00;96894.69;4319315;33;20048;-73
2021/12/24 06:52:49;;;;;;;13.93;8.18;;;;;;;-0.76;100.00;96893.75;4323201;33;20037;-73
2021/12/24 06:55:17;;;;;;;16.85;8.77;;;;;;;-0.65;100.00;96891.34;4323138;33;20052;-73
2021/12/24 06:57:46;;;;;;;16.37;9.88;;;;;;;-0.75;100.00;96890.09;4322087;33;20106;-73
2021/12/24 07:00:18;;;;;;;17.67;9.80;;;;;;;-0.59;100.00;96885.94;4323943;33;21505;-73
2021/12/24 07:02:45;;;;;;;14.55;8.65;;;;;;;-0.79;100.00;96865.12;4325499;33;20419;-73
2021/12/24 07:05:12;;;;;;;18.48;9.10;;;;;;;-0.82;100.00;96883.28;4323961;33;20085;-73
2021/12/24 07:07:39;;;;;;;14.23;8.57;;;;;;;-0.77;100.00;96884.19;4317326;33;20032;-75
2021/12/24 07:10:06;;;;;;;15.77;8.23;;;;;;;-0.81;100.00;96882.28;4326029;33;20062;-73
2021/12/24 07:12:33;;;;;;;16.45;8.02;;;;;;;-0.91;100.00;96861.69;4322500;33;20029;-73
2021/12/24 07:14:59;;;;;;;17.33;9.05;;;;;;;-0.99;100.00;96843.53;4323380;33;20061;-71
2021/12/24 07:17:26;;;;;;;17.20;8.85;;;;;;;-0.82;100.00;96870.88;4323633;33;20043;-72
2021/12/24 07:19:53;;;;;;;14.68;8.75;;;;;;;-0.64;100.00;96882.38;4320592;33;20033;-74
2021/12/24 07:22:19;;;;;;;14.55;8.45;;;;;;;-0.63;100.00;96894.56;4321818;33;20057;-74
2021/12/24 07:24:46;;;;;;;14.48;8.45;;;;;;;-0.65;100.00;96896.63;4322627;33;20081;-71
2021/12/24 07:27:13;;;;;;;15.13;7.97;;;;;;;-0.67;100.00;96898.69;4316713;33;20117;-73
2021/12/24 07:29:39;;;;;;;15.20;8.40;;;;;;;-0.99;100.00;96862.03;4323523;33;20040;-74
2021/12/24 07:32:12;;;;;;;13.98;8.10;;;;;;;-0.77;100.00;96915.91;4311750;33;20079;-74
2021/12/24 07:34:38;;;;;;;16.87;8.20;;;;;;;-0.93;100.00;96872.47;4308048;33;20086;-72
2021/12/24 07:37:05;;;;;;;16.48;9.27;;;;;;;-1.02;100.00;96865.94;4303800;33;20482;-72
2021/12/24 07:39:32;;;;;;;17.05;8.85;;;;;;;-0.68;100.00;96907.66;4322586;33;20076;-72
2021/12/24 07:41:58;;;;;;;16.92;8.40;;;;;;;-0.94;100.00;96862.97;4321325;33;20175;-73
2021/12/24 07:44:26;;;;;;;17.00;8.77;;;;;;;-0.70;100.00;96905.25;4307042;33;20091;-72
2021/12/24 07:46:57;;;;;;;14.63;7.87;;;;;;;-0.84;100.00;96883.53;4323932;33;20459;-71
2021/12/24 07:52:11;;;;;;;17.55;10.57;;;;;;;-0.71;100.00;96929.28;4323823;33;20033;-72
2021/12/24 07:54:48;;;;;;;22.65;9.15;;;;;;;-0.62;100.00;96930.53;4323753;33;20051;-72
2021/12/24 07:57:15;;;;;;;16.58;8.20;;;;;;;-0.85;100.00;96892.47;4304160;33;20032;-72
2021/12/24 07:59:43;;;;;;;20.20;9.90;;;;;;;-0.70;100.00;96930.88;4324261;33;20109;-72
2021/12/24 08:02:16;;;;;;;15.30;8.05;;;;;;;-0.62;100.00;96930.53;4322483;33;20028;-73
2021/12/24 08:04:45;;;;;;;21.65;11.38;;;;;;;-0.59;100.00;96927.41;4310121;33;20040;-72
2021/12/24 08:07:12;;;;;;;20.40;10.43;;;;;;;-0.53;100.00;96931.78;4315131;33;20076;-72
2021/12/24 08:09:39;;;;;;;22.10;9.98;;;;;;;-0.68;100.00;96919.03;4300056;33;20092;-72
2021/12/24 08:12:08;;;;;;;24.90;11.82;;;;;;;-0.82;100.00;96892.03;4315661;33;20120;-72
2021/12/24 08:14:35;;;;;;;23.73;10.65;;;;;;;-0.47;100.00;96922.16;4315965;33;20044;-73
2021/12/24 08:17:03;;;;;;;19.55;10.88;;;;;;;-0.79;100.00;96896.06;4325257;33;20072;-71
2021/12/24 08:19:30;;;;;;;22.65;11.07;;;;;;;-0.50;100.00;96922.59;4326017;33;20044;-71
2021/12/24 08:21:58;;;;;;;25.92;11.30;;;;;;;-0.51;100.00;96923.63;4306480;33;20152;-74
2021/12/24 08:24:25;;;;;;;21.62;11.05;;;;;;;-0.64;100.00;96904.34;4312281;33;20062;-73
2021/12/24 08:26:52;;;;;;;24.45;12.00;;;;;;;-0.49;100.00;96911.81;4312357;33;20409;-71
2021/12/24 08:29:21;;;;;;;28.08;13.60;;;;;;;-0.49;100.00;96917.09;4325912;33;20024;-72
2021/12/24 08:31:50;;;;;;;24.05;11.48;;;;;;;-0.75;100.00;96876.87;4319111;33;20029;-71
2021/12/24 08:34:18;;;;;;;29.05;11.90;;;;;;;-0.59;100.00;96901.81;4308925;33;20058;-74
2021/12/24 08:36:49;;;;;;;19.05;10.20;;;;;;;-0.71;100.00;96886.97;4320756;33;20073;-71
2021/12/24 08:39:19;;;;;;;26.30;12.23;;;;;;;-0.85;100.00;96852.84;4322742;33;20362;-71
2021/12/24 08:41:49;;;;;;;25.65;11.50;;;;;;;-0.62;100.00;96875.84;4315743;33;20104;-71
2021/12/24 08:44:15;;;;;;;15.48;7.93;;;;;;;-0.69;100.00;96856.62;4322337;33;20048;-71
2021/12/24 08:46:42;;;;;;;20.33;11.07;;;;;;;-0.99;100.00;96830.31;4322072;33;20045;-71
2021/12/24 08:49:08;;;;;;;28.50;13.52;;;;;;;-0.70;100.00;96852.41;4318466;33;20508;-72
2021/12/24 08:51:35;;;;;;;25.75;11.45;;;;;;;-0.69;100.00;96837.34;4325152;33;20052;-72
2021/12/24 08:54:02;;;;;;;25.33;11.57;;;;;;;-0.85;100.00;96823.78;4318631;33;20102;-73
2021/12/24 08:56:29;;;;;;;22.70;11.30;;;;;;;-0.56;100.00;96874.09;4318168;33;20118;-71
2021/12/24 08:58:56;;;;;;;31.05;12.37;;;;;;;-0.75;100.00;96874.22;4317993;33;20433;-71
2021/12/24 09:01:23;;;;;;;27.30;13.20;;;;;;;-0.52;100.00;96869.97;4319813;33;20443;-71
2021/12/24 09:03:49;;;;;;;25.23;10.13;;;;;;;-0.57;100.00;96885.72;4319932;33;20049;-71
2021/12/24 09:06:16;;;;;;;19.02;9.85;;;;;;;-0.53;100.00;96872.84;4308773;33;20040;-73
2021/12/24 09:08:44;;;;;;;23.23;10.27;;;;;;;-0.60;100.00;96876.41;4323648;33;20060;-70
2021/12/24 09:11:11;;;;;;;23.33;11.38;;;;;;;-0.46;100.00;96869.03;4323728;33;20045;-70
2021/12/24 09:13:38;;;;;;;21.02;11.15;;;;;;;-0.62;100.00;96848.59;4313077;33;20052;-71
2021/12/24 09:16:05;;;;;;;19.12;10.32;;;;;;;-0.52;100.00;96863.88;4312512;33;20095;-71
2021/12/24 09:18:32;;;;;;;23.87;11.98;;;;;;;-0.63;100.00;96870.78;4310659;33;20388;-71
2021/12/24 09:21:02;;;;;;;29.55;12.25;;;;;;;-0.84;100.00;96798.97;4327083;33;20052;-71
2021/12/24 09:23:29;;;;;;;18.02;8.50;;;;;;;-0.43;100.00;96849.25;4312632;33;20435;-71
2021/12/24 09:25:56;;;;;;;18.80;10.40;;;;;;;-0.61;100.00;96851.00;4323270;33;20062;-73
2021/12/24 09:28:22;;;;;;;24.83;12.00;;;;;;;-0.49;100.00;96848.34;4324470;33;20412;-72
2021/12/24 09:30:49;;;;;;;23.00;11.52;;;;;;;-0.73;100.00;96816.66;4325304;33;20060;-72
2021/12/24 09:33:16;;;;;;;22.10;9.65;;;;;;;-0.76;100.00;96805.75;4317224;33;20086;-72
2021/12/24 09:35:49;;;;;;;22.50;10.18;;;;;;;-0.74;100.00;96809.75;4324721;33;20056;-73
2021/12/24 09:38:15;;;;;;;20.15;9.70;;;;;;;-0.44;100.00;96851.09;4311585;33;20044;-72
2021/12/24 09:40:42;;;;;;;21.73;10.90;;;;;;;-0.57;100.00;96838.13;4326335;33;20406;-72
2021/12/24 09:43:09;;;;;;;20.98;10.73;;;;;;;-0.57;100.00;96835.50;4314280;33;20048;-72
2021/12/24 09:45:35;;;;;;;22.58;11.18;;;;;;;-0.50;100.00;96849.38;4315607;33;20047;-72
2021/12/24 09:48:02;;;;;;;25.67;10.40;;;;;;;-0.46;100.00;96847.88;4315680;33;20099;-71
2021/12/24 09:50:29;;;;;;;25.25;11.50;;;;;;;-0.75;100.00;96813.44;4318378;33;20110;-71
2021/12/24 09:52:59;;;;;;;21.25;11.18;;;;;;;-0.55;100.00;96834.22;4325208;33;20138;-72
2021/12/24 09:55:28;;;;;;;21.90;10.00;;;;;;;-0.48;100.00;96839.41;4324086;33;20044;-73
2021/12/24 09:57:55;;;;;;;24.42;10.52;;;;;;;-0.42;100.00;96838.44;4311688;33;20044;-72
2021/12/24 10:00:24;;;;;;;25.83;11.52;;;;;;;-0.59;100.00;96826.97;4314852;33;20120;-73
2021/12/24 10:02:55;;;;;;;22.20;11.50;;;;;;;-0.79;100.00;96785.88;4319159;33;20419;-72
2021/12/24 10:05:37;;;;;;;24.60;10.23;;;;;;;-0.45;100.00;96823.03;4305264;33;20060;-71
2021/12/24 10:08:19;;;;;;;22.17;11.18;;;;;;;-0.45;100.00;96825.69;4307237;33;20048;-71
2021/12/24 10:11:09;;;;;;;24.95;10.98;;;;;;;-0.50;100.00;96809.72;4326605;33;20100;-71
2021/12/24 10:13:38;;;;;;;23.00;9.80;;;;;;;-0.46;100.00;96805.59;4298764;33;20069;-71
2021/12/24 10:16:19;;;;;;;16.45;9.05;;;;;;;-0.76;100.00;96769.53;4307198;33;20044;-72
2021/12/24 10:18:52;;;;;;;30.55;12.35;;;;;;;-0.58;100.00;96796.88;4319729;33;20052;-71
2021/12/24 10:21:22;;;;;;;27.60;11.95;;;;;;;-0.69;100.00;96758.06;4324829;33;20067;-73
2021/12/24 10:23:52;;;;;;;23.35;11.25;;;;;;;-0.41;100.00;96792.47;4315254;33;20056;-71
2021/12/24 10:26:22;;;;;;;26.00;12.10;;;;;;;-0.79;100.00;96743.59;4309987;33;20058;-71
2021/12/24 10:28:53;;;;;;;22.77;10.43;;;;;;;-0.51;100.00;96792.28;4324290;33;20028;-70
2021/12/24 10:31:23;;;;;;;22.73;11.38;;;;;;;-0.40;100.00;96778.22;4322472;33;20036;-73
2021/12/24 10:34:14;;;;;;;22.95;11.27;;;;;;;-0.49;100.00;96778.81;4319759;33;20087;-72
2021/12/24 10:36:50;;;;;;;19.65;10.65;;;;;;;-0.35;100.00;96779.34;4310929;33;20044;-71
2021/12/24 10:39:17;;;;;;;17.77;8.88;;;;;;;-0.63;100.00;96738.63;4312250;33;20065;-72
2021/12/24 10:41:47;;;;;;;17.37;9.15;;;;;;;-0.64;100.00;96739.66;4323193;33;20044;-73
2021/12/24 10:44:17;;;;;;;23.80;9.95;;;;;;;-0.46;100.00;96752.72;4312465;33;20097;-72
2021/12/24 10:46:58;;;;;;;26.33;10.63;;;;;;;-0.35;100.00;96755.53;4307923;33;20060;-72
2021/12/24 10:49:38;;;;;;;21.00;10.63;;;;;;;-0.49;100.00;96742.59;4325173;33;20048;-71
2021/12/24 10:55:00;;;;;;;11.88;6.05;;;;;;;-0.39;100.00;96769.22;4316477;33;20061;-72
2021/12/24 10:57:33;;;;;;;15.05;7.45;;;;;;;-0.38;100.00;96770.03;4310869;33;20092;-71
2021/12/24 11:00:07;;;;;;;18.55;8.70;;;;;;;-0.69;100.00;96721.03;4316321;33;20041;-73
2021/12/24 11:02:36;;;;;;;20.42;8.57;;;;;;;-0.25;100.00;96753.09;4325401;33;20078;-69
2021/12/24 11:05:04;;;;;;;16.00;7.75;;;;;;;-0.30;100.00;96763.56;4317621;33;20111;-71
2021/12/24 11:07:40;;;;;;;14.10;7.68;;;;;;;-0.33;100.00;96767.50;4324512;33;20405;-72
2021/12/24 11:10:15;;;;;;;17.67;8.10;;;;;;;-0.23;100.00;96774.81;4322438;33;20040;-72
2021/12/24 11:12:44;;;;;;;12.43;6.25;;;;;;;-0.25;100.00;96742.53;4324253;33;20203;-71
2021/12/24 11:15:33;;;;;;;18.90;8.32;;;;;;;-0.28;100.00;96746.44;4325609;33;20080;-72
2021/12/24 11:18:07;;;;;;;13.52;6.72;;;;;;;-0.48;100.00;96675.47;4324410;33;20508;-70
2021/12/24 11:20:35;;;;;;;16.15;7.10;;;;;;;-0.08;100.00;96747.84;4324188;33;20074;-72
2021/12/24 11:23:11;;;;;;;12.90;6.93;;;;;;;-0.25;100.00;96753.09;4324478;33;20109;-72
2021/12/24 11:25:49;;;;;;;13.52;6.35;;;;;;;-0.42;100.00;96694.88;4323578;33;20070;-72
2021/12/24 11:28:17;;;;;;;13.75;5.78;;;;;;;-0.24;100.00;96728.25;4323046;33;20062;-74
2021/12/24 11:30:50;;;;;;;12.90;5.95;;;;;;;-0.29;100.00;96714.94;4319989;33;20098;-72
2021/12/24 11:33:22;;;;;;;13.70;7.30;;;;;;;-0.34;100.00;96717.50;4321698;33;20040;-75
2021/12/24 11:35:52;;;;;;;10.52;5.60;;;;;;;-0.50;100.00;96677.53;4319359;33;20048;-73
2021/12/24 11:38:22;;;;;;;9.93;6.12;;;;;;;-0.59;100.00;96668.38;4308741;33;20059;-72
2021/12/24 11:40:51;;;;;;;12.60;5.68;;;;;;;-0.30;100.00;96708.03;4325172;33;20044;-73
2021/12/24 11:43:19;;;;;;;13.40;6.32;;;;;;;-0.23;100.00;96725.34;4323920;33;20062;-75
2021/12/24 11:45:47;;;;;;;19.67;8.05;;;;;;;-0.17;100.00;96739.50;4326589;33;20041;-73
2021/12/24 11:48:14;;;;;;;12.02;4.45;;;;;;;-0.51;100.00;96702.38;4313376;33;20050;-72
2021/12/24 11:50:42;;;;;;;12.68;6.30;;;;;;;-0.60;100.00;96714.38;4321596;33;20040;-72
2021/12/24 11:53:14;;;;;;;12.48;6.87;;;;;;;-0.27;100.00;96741.94;4318159;33;20049;-72
2021/12/24 11:55:49;;;;;;;14.95;7.90;;;;;;;-0.28;100.00;96750.94;4323928;33;20062;-72
2021/12/24 11:58:22;;;;;;;13.05;7.10;;;;;;;-0.38;100.00;96722.44;4317306;33;20369;-72
2021/12/24 12:00:54;;;;;;;22.40;8.68;;;;;;;-0.22;100.00;96728.81;4315039;33;20040;-73
2021/12/24 12:03:38;;;;;;;17.02;7.57;;;;;;;-0.54;100.00;96681.72;4316888;33;20083;-72
2021/12/24 12:06:09;;;;;;;15.25;6.97;;;;;;;-0.30;100.00;96706.19;4316817;33;20048;-73
2021/12/24 12:08:39;;;;;;;15.02;7.35;;;;;;;-0.45;100.00;96671.53;4314622;33;20052;-73
2021/12/24 12:11:25;;;;;;;20.15;8.93;;;;;;;-0.15;100.00;96729.47;4314139;33;20447;-73
2021/12/24 12:13:55;;;;;;;14.85;7.40;;;;;;;-0.11;100.00;96730.63;4318661;33;20194;-73
2021/12/24 12:16:27;;;;;;;18.37;8.68;;;;;;;0.04;100.00;96718.69;4315890;33;20198;-73
2021/12/24 12:19:27;;;;;;;16.37;7.82;;;;;;;-0.07;100.00;96713.22;4322402;33;20082;-74
2021/12/24 12:24:57;;;;;;;14.80;6.97;;;;;;;0.13;100.00;96714.63;4327789;33;20457;-73
2021/12/24 12:27:31;;;;;;;14.95;7.00;;;;;;;0.09;100.00;96694.97;4327038;33;20040;-73
2021/12/24 12:30:21;;;;;;;14.68;6.20;;;;;;;0.09;100.00;96706.34;4319163;33;20028;-73
2021/12/24 12:32:50;;;;;;;14.55;7.12;;;;;;;0.20;100.00;96704.66;4322282;33;20044;-74
2021/12/24 12:35:18;;;;;;;15.85;7.18;;;;;;;0.24;100.00;96700.50;4311155;33;20059;-74
2021/12/24 12:37:49;;;;;;;17.00;6.55;;;;;;;-0.26;100.00;96627.19;4316378;33;20079;-73
2021/12/24 12:40:15;;;;;;;15.10;7.07;;;;;;;0.04;100.00;96671.84;4325597;33;20046;-72
2021/12/24 12:42:48;;;;;;;13.18;6.45;;;;;;;0.06;100.00;96658.38;4319535;33;20442;-73
2021/12/24 12:45:17;;;;;;;18.73;7.50;;;;;;;0.31;100.00;96703.78;4308972;33;20468;-75
2021/12/24 12:47:52;;;;;;;14.07;7.00;;;;;;;0.35;100.00;96704.09;4318649;33;20053;-72
2021/12/24 12:50:20;;;;;;;20.17;8.05;;;;;;;0.15;100.00;96660.41;4317760;33;20048;-74
2021/12/24 12:52:47;;;;;;;18.33;8.43;;;;;;;0.36;100.00;96695.91;4318294;33;20058;-75
2021/12/24 12:55:34;;;;;;;18.48;7.78;;;;;;;0.10;100.00;96648.94;4310822;33;20197;-75
2021/12/24 12:58:22;;;;;;;18.37;8.27;;;;;;;0.19;100.00;96663.34;4319509;33;20078;-74
2021/12/24 13:01:05;;;;;;;21.77;10.25;;;;;;;0.38;100.00;96689.59;4320268;33;20088;-75
2021/12/24 13:03:53;;;;;;;26.70;12.00;;;;;;;0.20;100.00;96649.09;4318375;33;20066;-74
2021/12/24 13:06:20;;;;;;;32.80;13.95;;;;;;;0.39;100.00;96680.63;4295026;33;20406;-74
2021/12/24 13:08:49;;;;;;;38.70;14.07;;;;;;;0.14;100.00;96644.75;4323221;33;20057;-74
2021/12/24 13:11:18;;;;;;;27.90;11.60;;;;;;;0.44;100.00;96680.69;4321808;33;20048;-74
2021/12/24 13:13:51;;;;;;;35.97;14.80;;;;;;;0.17;100.00;96644.28;4325205;33;20055;-73
2021/12/24 13:16:21;;;;;;;29.73;11.57;;;;;;;0.01;100.00;96621.28;4323972;33;20110;-74
2021/12/24 13:18:54;;;;;;;28.62;12.57;;;;;;;0.27;100.00;96644.44;4322630;33;20093;-73
2021/12/24 13:24:21;;;;;;;33.65;12.45;;;;;;;0.49;100.00;96672.81;4322790;33;20098;-73
2021/12/24 13:26:56;;;;;;;31.23;14.57;;;;;;;0.52;100.00;96674.97;4323973;33;20081;-71
2021/12/24 13:29:26;;;;;;;37.38;16.23;;;;;;;0.39;100.00;96639.03;4318487;33;20044;-73